Wind van: 16-12-2018 03:00 tot: 08:00 waarschuwing voor: Wind niveau: Geel info button
Gladheid door sneeuwval en ijsregen of IJZEL.Kans op gladheid.Alle verkeersdeelnemers kunnen hinder ondervinden.Pas uw rijgedrag aan.Volg weerberichten en waarschuwingen.


Weersoverzicht van METAR-stations binnen 150 km

EHRD - Rotterdam Airport
Afstand tot weerstation: ZO 28 km
Update: 16-12-2018 04:25
Mist, Zwaar bewolkt
Mist, Zwaar bewolkt
 Wind van ZZO
Wind: ZZO 17 km/h
Temperatuur: 1°C
Gevoelstemperatuur: -3°C
Dauwpunt: 0°C
Luchtvochtigheid: 93%
Luchtdruk: 1008 hPa
Overzicht: Mist
Bewolking: Zwaar bewolkt
Zicht: 5 km
Details Bewolking: Overwegend bewolkt 183 m
Overwegend bewolkt 213 m
Zwaar bewolkt 244 m
2018/12/16 03:25 EHRD 160325Z AUTO 16009KT 120V180 5000 BR BKN006 BKN007 OVC008 01/M00 Q1008 06/591091 NOSIG
EHSC - Goeree Le Sea (Platform ter hoogte van Zeeland)
Afstand tot weerstation: WZW 36 km
Update: 16-12-2018 04:25
Mist
Mist
 Wind van Z
Wind: Z 39 km/h
Temperatuur: 3°C
Gevoelstemperatuur: -3°C
Dauwpunt: 2°C
Luchtvochtigheid: 93%
Luchtdruk: 1007 hPa
Overzicht: Mist
Zicht: 5 km
2018/12/16 03:25 EHSC 160325Z AUTO 18021KT 5000 BR ///////// 03/02 Q1007 W08/H14
 
EHAM - A'dam Schiphol
Afstand tot weerstation: ONO 51 km
Update: 16-12-2018 04:25
Light freezing, Motregen, Mist, Overwegend bewolkt
Light freezing, Motregen, Mist, Overwegend bewolkt
 Wind van ZZO
Wind: ZZO 28 km/h
Temperatuur: 0°C
Gevoelstemperatuur: -6°C
Dauwpunt: -1°C
Luchtvochtigheid: 93%
Luchtdruk: 1009 hPa
Overzicht: Light freezing, Motregen, Mist
Bewolking: Overwegend bewolkt
Zicht: 4 km
Details Bewolking: Gedeeltelijk bewolkt 183 m
Overwegend bewolkt 244 m
2018/12/16 03:25 EHAM 160325Z 15015KT 3900 -FZDZ BR SCT006 BKN008 M00/M01 Q1009 BECMG NSW
EHSA - Euro Platform (Ter hoogte van Zeeland)
Afstand tot weerstation: W 58 km
Update: 16-12-2018 04:25

 Wind van Z
Wind: Z 44 km/h
Temperatuur: 5°C
Gevoelstemperatuur: -1°C
Dauwpunt: 3°C
Luchtvochtigheid: 87%
Luchtdruk: 1006 hPa
Zicht: 7 km
2018/12/16 03:25 EHSA 160325Z AUTO 17024KT 7000 ///////// 05/03 Q1006 W07/H20
 
EHPG - P11-B Sea (Platform ter hoogte van Zuid Holland)
Afstand tot weerstation: NW 60 km
Update: 16-12-2018 04:25
Lichte regen, Few clouds
Lichte regen, Few clouds
 Wind van Z
Wind: Z 54 km/h
Temperatuur: 5°C
Gevoelstemperatuur: -2°C
Dauwpunt: 4°C
Luchtvochtigheid: 93%
Luchtdruk: 1005 hPa
Overzicht: Lichte regen
Bewolking: Enkele wolken
Zicht: 5 km
Details Bewolking: Gedeeltelijk bewolkt 122 m
Overwegend bewolkt 152 m
Enkele wolken 457 m
2018/12/16 03:25 EHPG 160325Z AUTO 17029KT 4800 -RA SCT004 BKN005 FEW015CB 05/04 Q1005 W///H///
EHWO - Vliegveld Woensdrecht
Afstand tot weerstation: ZZO 65 km
Update: 16-12-2018 04:25
Mist, Zwaar bewolkt
Mist, Zwaar bewolkt
 Wind van ZZO
Wind: ZZO 11 km/h
Temperatuur: 0°C
Gevoelstemperatuur: -4°C
Dauwpunt: 0°C
Luchtvochtigheid: 100%
Luchtdruk: 1009 hPa
Overzicht: Mist
Bewolking: Zwaar bewolkt
Zicht: 5 km
Details Bewolking: Gedeeltelijk bewolkt 122 m
Overwegend bewolkt 183 m
Zwaar bewolkt 244 m
2018/12/16 03:25 EHWO 160325Z AUTO 16006KT 120V210 4800 BR SCT004 BKN006 OVC008 00/00 Q1009 REDZ YLO
 
EHGR - Vliegveld Gilze-Rijen
Afstand tot weerstation: ZO 79 km
Update: 16-12-2018 04:47
Light, Zwaar bewolkt
Light, Zwaar bewolkt
 Wind van ZZO
Wind: ZZO 17 km/h
Temperatuur: 0°C
Gevoelstemperatuur: -4°C
Dauwpunt: 0°C
Luchtvochtigheid: 100%
Luchtdruk: 1009 hPa
Overzicht: Light
Bewolking: Zwaar bewolkt
Zicht: 3 km
Details Bewolking: Overwegend bewolkt 183 m
Overwegend bewolkt 213 m
Zwaar bewolkt 244 m
2018/12/16 03:47 EHGR 160347Z AUTO 16009KT 3100 -UP BKN006 BKN007 OVC008 00/M00 Q1009 YLO
EHQE - Hoorn-A Sea (Platform ter hoogte van Noord Holland)
Afstand tot weerstation: N 103 km
Update: 16-12-2018 04:25
Zwaar bewolkt
Zwaar bewolkt
 Wind van Z
Wind: Z 56 km/h
Temperatuur: 3°C
Gevoelstemperatuur: -4°C
Dauwpunt: 2°C
Luchtvochtigheid: 93%
Luchtdruk: 1006 hPa
Bewolking: Zwaar bewolkt
Zicht: 7 km
Details Bewolking: Enkele wolken 122 m
Overwegend bewolkt 183 m
Zwaar bewolkt 213 m
2018/12/16 03:25 EHQE 160325Z AUTO 18030KT 7000 FEW004 BKN006 OVC007 03/02 Q1006 W///H///
 
EHKD - Marinebasis De Kooy (Den Helder)
Afstand tot weerstation: NNO 114 km
Update: 16-12-2018 04:25
Mist, Zwaar bewolkt
Mist, Zwaar bewolkt
 Wind van ZZO
Wind: ZZO 26 km/h
Temperatuur: 0°C
Gevoelstemperatuur: -6°C
Dauwpunt: 0°C
Luchtvochtigheid: 100%
Luchtdruk: 1008 hPa
Overzicht: Mist
Bewolking: Zwaar bewolkt
Zicht: 6 km
Details Bewolking: Zwaar bewolkt 183 m
2018/12/16 03:25 EHKD 160325Z AUTO 16014KT 130V190 6000 BR OVC006 M00/M00 Q1008 YLO
EHEH - Vliegveld Eindhoven
Afstand tot weerstation: OZO 115 km
Update: 16-12-2018 04:25
Lichte sneeuw, Zwaar bewolkt
Lichte sneeuw, Zwaar bewolkt
 Wind van ZO
Wind: ZO 15 km/h
Temperatuur: 0°C
Gevoelstemperatuur: -4°C
Dauwpunt: -1°C
Luchtvochtigheid: 93%
Luchtdruk: 1010 hPa
Overzicht: Lichte sneeuw
Bewolking: Zwaar bewolkt
Zicht: 2 km
Details Bewolking: Enkele wolken 122 m
Overwegend bewolkt 152 m
Zwaar bewolkt 183 m
2018/12/16 03:25 EHEH 160325Z AUTO 14008KT 2100 -SN FEW004 BKN005 OVC006 M00/M01 Q1010 REFZRA YLO
 
EHVK - Vliegveld Volkel
Afstand tot weerstation: OZO 124 km
Update: 16-12-2018 04:47
Lichte sneeuw, Zwaar bewolkt
Lichte sneeuw, Zwaar bewolkt
 Wind van ZO
Wind: ZO 15 km/h
Temperatuur: -1°C
Gevoelstemperatuur: -6°C
Dauwpunt: -1°C
Luchtvochtigheid: 100%
Luchtdruk: 1010 hPa
Overzicht: Lichte sneeuw
Bewolking: Zwaar bewolkt
Zicht: 3 km
Details Bewolking: Gedeeltelijk bewolkt 183 m
Gedeeltelijk bewolkt 244 m
Zwaar bewolkt 488 m
2018/12/16 03:47 EHVK 160347Z AUTO 14008KT 110V180 2800 R06L/2600D -SN SCT006 SCT008 OVC016 M01/M01 Q1010 YLO
EHDL - Vliegveld Deelen
Afstand tot weerstation: O 128 km
Update: 16-12-2018 04:25
Lichte sneeuw, Zwaar bewolkt
Lichte sneeuw, Zwaar bewolkt
 Wind van ZO
Wind: ZO 24 km/h
Temperatuur: -1°C
Gevoelstemperatuur: -7°C
Dauwpunt: -2°C
Luchtvochtigheid: 93%
Luchtdruk: 1009 hPa
Overzicht: Lichte sneeuw
Bewolking: Zwaar bewolkt
Zicht: 3 km
Details Bewolking: Enkele wolken 244 m
Zwaar bewolkt 488 m
2018/12/16 03:25 EHDL 160325Z AUTO 14013KT 090V200 2800 -SN FEW008 OVC016 M01/M02 Q1009 YLO